createdAt,value
2022-10-10T00:02:10.762Z,8.40
2022-10-10T00:04:37.864Z,9.07
2022-10-10T00:07:07.178Z,8.00
2022-10-10T00:09:35.463Z,10.20
2022-10-10T00:12:02.135Z,8.10
2022-10-10T00:14:32.405Z,9.43
2022-10-10T00:17:02.285Z,9.68
2022-10-10T00:19:29.673Z,8.75
2022-10-10T00:22:03.920Z,10.45
2022-10-10T00:24:31.291Z,9.85
2022-10-10T00:26:58.570Z,8.95
2022-10-10T00:29:25.720Z,8.32
2022-10-10T00:31:54.857Z,10.18
2022-10-10T00:34:21.782Z,10.75
2022-10-10T00:36:57.725Z,10.45
2022-10-10T00:39:27.199Z,9.35
2022-10-10T00:41:56.520Z,10.40
2022-10-10T00:44:23.871Z,10.73
2022-10-10T00:46:51.266Z,11.43
2022-10-10T00:49:22.772Z,12.15
2022-10-10T00:51:53.625Z,10.88
2022-10-10T00:54:22.908Z,11.18
2022-10-10T00:56:57.500Z,12.55
2022-10-10T00:59:25.033Z,11.10
2022-10-10T01:01:53.711Z,11.43
2022-10-10T01:04:29.927Z,10.73
2022-10-10T01:06:57.314Z,11.43
2022-10-10T01:09:27.460Z,12.55
2022-10-10T01:12:15.021Z,11.40
2022-10-10T01:15:00.493Z,11.13
2022-10-10T01:17:57.256Z,10.57
2022-10-10T01:20:54.107Z,12.63
2022-10-10T01:23:38.579Z,12.02
2022-10-10T01:26:41.202Z,11.45
2022-10-10T01:29:33.537Z,11.55
2022-10-10T01:32:17.360Z,13.63
2022-10-10T01:34:58.665Z,12.52
2022-10-10T01:37:49.000Z,12.18
2022-10-10T01:40:30.022Z,12.55
2022-10-10T01:43:01.211Z,12.63
2022-10-10T01:45:29.665Z,12.85
2022-10-10T01:48:02.806Z,12.52
2022-10-10T01:50:31.741Z,12.52
2022-10-10T01:53:15.519Z,12.80
2022-10-10T01:55:58.006Z,12.77
2022-10-10T01:58:38.309Z,13.10
2022-10-10T02:01:29.971Z,12.60
2022-10-10T02:04:13.023Z,11.65
2022-10-10T02:07:28.508Z,12.80
2022-10-10T02:09:58.914Z,13.57
2022-10-10T02:12:28.305Z,15.15
2022-10-10T02:15:04.940Z,12.98
2022-10-10T02:17:36.649Z,14.13
2022-10-10T02:20:08.136Z,13.43
2022-10-10T02:22:37.351Z,14.98
2022-10-10T02:25:05.482Z,14.30
2022-10-10T02:27:58.999Z,13.60
2022-10-10T02:30:27.609Z,13.45
2022-10-10T02:33:11.233Z,14.45
2022-10-10T02:35:43.051Z,12.68
2022-10-10T02:38:15.088Z,15.35
2022-10-10T02:40:46.795Z,14.00
2022-10-10T02:43:18.070Z,15.52
2022-10-10T02:45:53.676Z,14.68
2022-10-10T02:48:20.652Z,14.00
2022-10-10T02:50:52.721Z,14.27
2022-10-10T02:53:19.620Z,13.13
2022-10-10T02:55:46.608Z,15.40
2022-10-10T02:58:17.651Z,16.17
2022-10-10T03:00:45.894Z,14.32
2022-10-10T03:03:13.976Z,14.93
2022-10-10T03:05:40.795Z,14.30
2022-10-10T03:08:14.357Z,14.77
2022-10-10T03:10:41.521Z,14.95
2022-10-10T03:13:09.924Z,16.17
2022-10-10T03:15:36.965Z,15.68
2022-10-10T03:18:10.409Z,13.75
2022-10-10T03:20:37.151Z,13.65
2022-10-10T03:23:04.289Z,12.85
2022-10-10T03:25:31.211Z,13.43
2022-10-10T03:27:58.024Z,15.07
2022-10-10T03:30:25.445Z,15.13
2022-10-10T03:32:55.029Z,15.55
2022-10-10T03:35:22.492Z,14.50
2022-10-10T03:37:49.727Z,14.43
2022-10-10T03:40:18.175Z,15.25
2022-10-10T03:42:47.657Z,15.65
2022-10-10T03:45:16.063Z,15.70
2022-10-10T03:47:51.971Z,16.33
2022-10-10T03:50:20.142Z,15.35
2022-10-10T03:52:47.335Z,16.60
2022-10-10T03:55:14.579Z,17.60
2022-10-10T03:57:43.447Z,16.80
2022-10-10T04:00:10.719Z,16.65
2022-10-10T04:02:39.676Z,15.73
2022-10-10T04:05:11.861Z,16.13
2022-10-10T04:07:41.734Z,16.20
2022-10-10T04:10:10.831Z,15.70
2022-10-10T04:12:38.672Z,15.82
2022-10-10T04:15:06.175Z,17.83
2022-10-10T04:17:33.416Z,16.58
2022-10-10T04:20:00.884Z,17.08
2022-10-10T04:22:28.401Z,16.20
2022-10-10T04:24:55.065Z,17.08
2022-10-10T04:27:23.327Z,16.92
2022-10-10T04:29:50.400Z,16.52
2022-10-10T04:32:21.252Z,16.25
2022-10-10T04:34:48.594Z,18.42
2022-10-10T04:37:18.472Z,17.42
2022-10-10T04:39:45.784Z,19.80
2022-10-10T04:42:12.929Z,18.88
2022-10-10T04:44:40.954Z,20.05
2022-10-10T04:47:09.382Z,19.80
2022-10-10T04:49:38.850Z,19.00
2022-10-10T04:52:10.490Z,19.08
2022-10-10T04:54:38.116Z,16.40
2022-10-10T04:57:05.845Z,18.20
2022-10-10T04:59:36.671Z,19.40
2022-10-10T05:02:03.599Z,19.90
2022-10-10T05:04:31.981Z,21.50
2022-10-10T05:06:59.175Z,19.55
2022-10-10T05:09:27.757Z,21.23
2022-10-10T05:12:07.735Z,20.88
2022-10-10T05:14:36.384Z,21.55
2022-10-10T05:17:07.143Z,22.60
2022-10-10T05:19:37.281Z,19.95
2022-10-10T05:22:04.185Z,21.15
2022-10-10T05:24:36.276Z,22.90
2022-10-10T05:27:03.766Z,20.65
2022-10-10T05:29:31.760Z,24.33
2022-10-10T05:32:00.033Z,21.30
2022-10-10T05:34:27.704Z,23.25
2022-10-10T05:36:59.921Z,23.58
2022-10-10T05:39:27.124Z,24.98
2022-10-10T05:41:53.843Z,23.27
2022-10-10T05:44:20.966Z,25.42
2022-10-10T05:46:51.415Z,22.50
2022-10-10T05:49:21.022Z,24.08
2022-10-10T05:51:47.688Z,22.25
2022-10-10T05:54:14.889Z,23.30
2022-10-10T05:56:42.129Z,22.30
2022-10-10T05:59:11.969Z,24.08
2022-10-10T06:01:39.716Z,21.67
2022-10-10T06:04:08.188Z,23.50
2022-10-10T06:06:41.722Z,20.88
2022-10-10T06:09:08.860Z,19.15
2022-10-10T06:11:36.984Z,20.42
2022-10-10T06:14:03.861Z,19.50
2022-10-10T06:16:34.476Z,19.65
2022-10-10T06:19:02.939Z,16.75
2022-10-10T06:21:30.947Z,17.25
2022-10-10T06:23:59.347Z,16.33
2022-10-10T06:26:33.288Z,14.95
2022-10-10T06:29:00.273Z,13.98
2022-10-10T06:31:28.057Z,13.50
2022-10-10T06:33:55.084Z,14.77
2022-10-10T06:36:24.694Z,14.55
2022-10-10T06:38:51.972Z,16.95
2022-10-10T06:41:18.719Z,19.00
2022-10-10T06:43:45.430Z,16.60
2022-10-10T06:46:12.832Z,16.08
2022-10-10T06:48:40.268Z,16.60
2022-10-10T06:51:10.636Z,17.60
2022-10-10T06:53:37.680Z,16.60
2022-10-10T06:56:06.849Z,16.20
2022-10-10T06:58:35.135Z,16.65
2022-10-10T07:01:05.081Z,17.52
2022-10-10T07:03:33.081Z,16.42
2022-10-10T07:06:02.412Z,14.52
2022-10-10T07:08:30.978Z,17.27
2022-10-10T07:10:58.326Z,14.60
2022-10-10T07:13:33.248Z,15.15
2022-10-10T07:16:00.069Z,16.05
2022-10-10T07:18:29.061Z,12.07
2022-10-10T07:21:00.006Z,14.13
2022-10-10T07:23:28.661Z,11.95
2022-10-10T07:26:03.712Z,11.20
2022-10-10T07:28:32.822Z,12.40
2022-10-10T07:31:07.180Z,10.37
2022-10-10T07:33:40.771Z,10.77
2022-10-10T07:36:08.275Z,12.50
2022-10-10T07:38:36.403Z,10.60
2022-10-10T07:41:13.578Z,10.90
2022-10-10T07:43:40.366Z,10.00
2022-10-10T07:46:14.201Z,11.00
2022-10-10T07:48:42.174Z,11.00
2022-10-10T07:51:12.951Z,9.70
2022-10-10T07:53:42.243Z,11.17
2022-10-10T07:56:13.599Z,9.50
2022-10-10T07:58:43.786Z,11.07
2022-10-10T08:01:12.797Z,11.03
2022-10-10T08:03:40.120Z,11.67
2022-10-10T08:06:09.682Z,11.37
2022-10-10T08:08:48.547Z,12.00
2022-10-10T08:11:22.327Z,10.93
2022-10-10T08:13:57.281Z,11.80
2022-10-10T08:16:26.603Z,11.40
2022-10-10T08:18:53.440Z,11.80
2022-10-10T08:21:20.580Z,11.13
2022-10-10T08:23:48.355Z,10.23
2022-10-10T08:26:17.009Z,9.93
2022-10-10T08:28:44.861Z,9.50
2022-10-10T08:31:19.154Z,9.53
2022-10-10T08:33:47.984Z,9.33
2022-10-10T08:36:24.914Z,9.57
2022-10-10T08:38:57.150Z,9.70
2022-10-10T08:42:00.773Z,9.77
2022-10-10T08:44:52.599Z,9.03
2022-10-10T08:47:30.620Z,9.20
2022-10-10T08:50:06.802Z,9.23
2022-10-10T08:52:56.735Z,9.77
2022-10-10T08:55:34.621Z,8.00
2022-10-10T08:58:24.031Z,8.20
2022-10-10T09:01:09.370Z,8.20
2022-10-10T09:03:46.748Z,8.43
2022-10-10T09:06:35.012Z,8.03
2022-10-10T09:09:36.855Z,8.93
2022-10-10T09:12:23.177Z,8.70
2022-10-10T09:15:01.956Z,7.60
2022-10-10T09:17:57.657Z,7.50
2022-10-10T09:20:36.738Z,8.37
2022-10-10T09:23:23.394Z,7.60
2022-10-10T09:26:12.760Z,9.43
2022-10-10T09:28:57.104Z,8.27
2022-10-10T09:31:38.620Z,10.30
2022-10-10T09:34:19.802Z,8.20
2022-10-10T09:36:49.779Z,7.10
2022-10-10T09:39:17.696Z,8.30
2022-10-10T09:42:03.776Z,7.00
2022-10-10T09:44:31.880Z,8.60
2022-10-10T09:47:00.690Z,6.50
2022-10-10T09:49:30.204Z,9.17
2022-10-10T09:51:58.489Z,7.13
2022-10-10T09:54:25.372Z,6.57
2022-10-10T09:56:56.671Z,6.97
2022-10-10T09:59:44.869Z,8.43
2022-10-10T10:02:26.715Z,7.83
2022-10-10T10:04:54.941Z,7.20
2022-10-10T10:07:34.238Z,6.67
2022-10-10T10:10:11.530Z,7.17
2022-10-10T10:12:40.943Z,6.90
2022-10-10T10:15:21.005Z,7.07
2022-10-10T10:18:21.342Z,7.17
2022-10-10T10:21:09.488Z,6.40
2022-10-10T10:23:49.760Z,6.67
2022-10-10T10:26:19.140Z,6.60
2022-10-10T10:28:47.440Z,7.10
2022-10-10T10:31:28.690Z,6.93
2022-10-10T10:34:35.906Z,4.47
2022-10-10T10:37:15.173Z,7.20
2022-10-10T10:40:05.069Z,7.13
2022-10-10T10:42:57.052Z,6.43
2022-10-10T10:45:49.678Z,6.60
2022-10-10T10:48:45.108Z,6.67
2022-10-10T10:51:33.387Z,6.17
2022-10-10T10:54:17.796Z,5.87
2022-10-10T10:56:56.490Z,5.93
2022-10-10T11:00:17.027Z,5.47
2022-10-10T11:03:28.014Z,6.00
2022-10-10T11:06:13.137Z,5.83
2022-10-10T11:08:53.305Z,5.50
2022-10-10T11:11:42.577Z,5.63
2022-10-10T11:14:34.915Z,4.50
2022-10-10T11:17:17.021Z,5.57
2022-10-10T11:20:08.243Z,5.90
2022-10-10T11:22:51.519Z,5.23
2022-10-10T11:25:31.080Z,5.80
2022-10-10T11:28:19.540Z,7.07
2022-10-10T11:31:03.080Z,5.30
2022-10-10T11:33:43.984Z,4.90
2022-10-10T11:36:20.552Z,4.33
2022-10-10T11:39:14.532Z,5.17
2022-10-10T11:42:00.812Z,5.90
2022-10-10T11:44:51.403Z,4.47
2022-10-10T11:47:27.385Z,5.30
2022-10-10T11:50:05.296Z,5.20
2022-10-10T11:52:46.578Z,5.30
2022-10-10T11:55:19.682Z,5.80
2022-10-10T11:58:07.233Z,5.87
2022-10-10T12:00:44.634Z,5.43
2022-10-10T12:03:11.700Z,4.00
2022-10-10T12:05:52.451Z,5.57
2022-10-10T12:08:26.422Z,4.63
2022-10-10T12:11:02.316Z,4.90
2022-10-10T12:13:43.534Z,5.30
2022-10-10T12:16:15.276Z,5.07
2022-10-10T12:19:03.301Z,5.03
2022-10-10T12:21:33.460Z,4.80
2022-10-10T12:24:15.388Z,5.03
2022-10-10T12:27:12.493Z,4.40
2022-10-10T12:30:09.603Z,5.20
2022-10-10T12:32:36.753Z,4.20
2022-10-10T12:35:04.332Z,4.40
2022-10-10T12:37:56.478Z,4.50
2022-10-10T12:40:23.903Z,5.47
2022-10-10T12:43:00.524Z,3.80
2022-10-10T12:45:30.991Z,4.80
2022-10-10T12:48:06.633Z,4.63
2022-10-10T12:50:40.599Z,5.40
2022-10-10T12:53:14.301Z,5.30
2022-10-10T12:56:02.311Z,4.93
2022-10-10T12:58:35.126Z,4.53
2022-10-10T13:01:28.614Z,4.57
2022-10-10T13:03:59.131Z,4.87
2022-10-10T13:06:39.975Z,5.53
2022-10-10T13:09:15.813Z,4.27
2022-10-10T13:11:56.902Z,5.50
2022-10-10T13:14:26.319Z,5.60
2022-10-10T13:16:55.172Z,5.80
2022-10-10T13:19:31.355Z,4.63
2022-10-10T13:22:06.859Z,4.23
2022-10-10T13:24:38.569Z,5.83
2022-10-10T13:27:05.627Z,4.60
2022-10-10T13:29:43.326Z,5.30
2022-10-10T13:32:40.493Z,5.53
2022-10-10T13:35:17.912Z,6.10
2022-10-10T13:37:47.651Z,5.23
2022-10-10T13:40:16.180Z,5.83
2022-10-10T13:42:46.941Z,5.97
2022-10-10T13:45:30.135Z,5.87
2022-10-10T13:48:06.331Z,5.30
2022-10-10T13:50:43.192Z,5.30
2022-10-10T13:53:34.289Z,5.77
2022-10-10T13:56:16.787Z,5.57
2022-10-10T13:59:04.336Z,4.40
2022-10-10T14:01:42.222Z,4.47
2022-10-10T14:04:30.366Z,5.60
2022-10-10T14:07:30.739Z,4.60
2022-10-10T14:10:00.509Z,5.10
2022-10-10T14:12:43.151Z,5.00
2022-10-10T14:15:36.538Z,4.67
2022-10-10T14:18:19.772Z,5.73
2022-10-10T14:20:48.015Z,4.67
2022-10-10T14:23:16.338Z,4.17
2022-10-10T14:25:49.270Z,3.80
2022-10-10T14:28:24.481Z,3.90
2022-10-10T14:30:52.447Z,4.50
2022-10-10T14:33:20.274Z,4.90
2022-10-10T14:35:49.866Z,4.07
2022-10-10T14:38:19.097Z,4.30
2022-10-10T14:40:49.147Z,3.87
2022-10-10T14:43:17.656Z,3.83
2022-10-10T14:45:50.949Z,4.60
2022-10-10T14:48:18.299Z,4.73
2022-10-10T14:50:49.269Z,5.47
2022-10-10T14:53:20.643Z,4.47
2022-10-10T14:55:47.522Z,4.00
2022-10-10T14:58:22.567Z,3.73
2022-10-10T15:00:56.096Z,3.30
2022-10-10T15:03:23.232Z,4.73
2022-10-10T15:05:50.748Z,3.30
2022-10-10T15:08:20.099Z,4.97
2022-10-10T15:10:47.288Z,4.00
2022-10-10T15:13:18.316Z,5.20
2022-10-10T15:15:47.230Z,3.70
2022-10-10T15:18:40.933Z,3.37
2022-10-10T15:21:16.217Z,4.43
2022-10-10T15:23:44.404Z,3.70
2022-10-10T15:26:11.645Z,4.37
2022-10-10T15:28:40.630Z,4.00
2022-10-10T15:31:08.687Z,4.53
2022-10-10T15:33:35.656Z,4.10
2022-10-10T15:36:10.200Z,4.17
2022-10-10T15:38:40.284Z,4.80
2022-10-10T15:41:10.185Z,3.67
2022-10-10T15:44:01.831Z,5.90
2022-10-10T15:46:32.843Z,4.40
2022-10-10T15:49:03.821Z,4.20
2022-10-10T15:51:40.207Z,4.00
2022-10-10T15:54:13.231Z,4.50
2022-10-10T15:56:40.973Z,5.03
2022-10-10T15:59:15.594Z,4.20
2022-10-10T16:01:44.830Z,5.40
2022-10-10T16:04:14.303Z,4.90
2022-10-10T16:06:46.770Z,4.73
2022-10-10T16:09:33.926Z,4.20
2022-10-10T16:12:13.370Z,4.23
2022-10-10T16:14:41.536Z,3.90
2022-10-10T16:17:08.709Z,4.70
2022-10-10T16:19:38.449Z,5.30
2022-10-10T16:22:05.384Z,4.87
2022-10-10T16:24:32.993Z,5.37
2022-10-10T16:27:06.751Z,5.80
2022-10-10T16:29:35.767Z,5.90
2022-10-10T16:32:06.905Z,4.90
2022-10-10T16:34:40.158Z,5.07
2022-10-10T17:03:40.532Z,5.17
2022-10-10T17:11:30.563Z,5.80
2022-10-10T17:14:01.632Z,6.20
2022-10-10T17:19:13.797Z,6.40
2022-10-10T17:21:47.922Z,7.70
2022-10-10T17:26:59.652Z,6.55
2022-10-10T17:34:44.203Z,6.88
2022-10-10T17:37:11.910Z,7.10
2022-10-10T17:39:39.387Z,7.20
2022-10-10T17:44:49.619Z,7.10
2022-10-10T17:47:19.927Z,8.10
2022-10-10T17:49:50.147Z,7.90
2022-10-10T17:52:21.478Z,7.65
2022-10-10T17:54:49.884Z,9.10
2022-10-10T17:57:17.318Z,7.05
2022-10-10T17:59:48.086Z,7.00
2022-10-10T18:02:19.600Z,7.90
2022-10-10T18:04:46.647Z,7.55
2022-10-10T18:20:43.598Z,7.38
2022-10-10T18:31:22.528Z,7.97
2022-10-10T18:33:51.590Z,6.93
2022-10-10T18:36:23.908Z,6.95
2022-10-10T18:38:51.784Z,6.40
2022-10-10T18:41:24.576Z,7.25
2022-10-10T18:43:57.857Z,8.18
2022-10-10T18:46:25.837Z,8.18
2022-10-10T18:48:54.368Z,5.95
2022-10-10T18:51:32.568Z,6.55
2022-10-10T18:54:12.015Z,8.15
2022-10-10T18:56:46.131Z,8.55
2022-10-10T18:59:16.294Z,6.75
2022-10-10T19:01:52.791Z,7.22
2022-10-10T19:04:31.835Z,7.68
2022-10-10T19:07:00.435Z,9.10
2022-10-10T19:09:30.575Z,8.23
2022-10-10T19:11:59.437Z,6.75
2022-10-10T19:17:10.268Z,7.63
2022-10-10T19:19:37.703Z,8.43
2022-10-10T19:24:48.634Z,7.93
2022-10-10T19:27:16.563Z,8.55
2022-10-10T19:29:43.760Z,8.30
2022-10-10T19:32:10.497Z,7.95
2022-10-10T19:34:41.513Z,8.25
2022-10-10T19:37:48.184Z,8.23
2022-10-10T19:40:21.842Z,9.25
2022-10-10T19:42:52.594Z,8.05
2022-10-10T19:45:21.709Z,8.88
2022-10-10T19:47:52.588Z,9.18
2022-10-10T19:53:17.895Z,8.73
2022-10-10T19:56:05.654Z,9.40
2022-10-10T19:58:45.483Z,8.85
2022-10-10T20:04:15.376Z,8.38
2022-10-10T20:06:50.565Z,9.50
2022-10-10T20:09:18.942Z,9.38
2022-10-10T20:11:48.922Z,9.52
2022-10-10T20:14:16.255Z,11.35
2022-10-10T20:16:44.123Z,9.25
2022-10-10T20:19:11.032Z,10.15
2022-10-10T20:21:40.968Z,10.70
2022-10-10T20:24:10.289Z,10.90
2022-10-10T20:26:39.232Z,10.30
2022-10-10T20:29:08.185Z,9.68
2022-10-10T20:31:36.726Z,10.40
2022-10-10T20:34:06.287Z,10.77
2022-10-10T20:36:37.010Z,9.73
2022-10-10T20:39:09.729Z,10.07
2022-10-10T20:41:39.320Z,10.07
2022-10-10T20:44:16.401Z,10.00
2022-10-10T20:46:58.695Z,10.95
2022-10-10T20:52:24.470Z,10.10
2022-10-10T20:54:58.965Z,9.07
2022-10-10T20:57:30.557Z,7.80
2022-10-10T21:00:00.450Z,7.30
2022-10-10T21:02:30.831Z,8.77
2022-10-10T21:04:59.440Z,8.90
2022-10-10T21:07:34.531Z,10.25
2022-10-10T21:10:06.646Z,7.97
2022-10-10T21:12:38.948Z,7.97
2022-10-10T21:15:09.025Z,9.13
2022-10-10T21:17:42.695Z,9.10
2022-10-10T21:20:15.618Z,7.82
2022-10-10T21:22:46.074Z,8.32
2022-10-10T21:25:31.127Z,8.73
2022-10-10T21:28:05.012Z,10.43
2022-10-10T21:30:40.908Z,8.75
2022-10-10T21:33:08.559Z,9.70
2022-10-10T21:35:39.280Z,9.20
2022-10-10T21:38:11.702Z,8.52
2022-10-10T21:40:38.653Z,8.82
2022-10-10T21:43:08.299Z,8.55
2022-10-10T21:45:43.447Z,8.30
2022-10-10T21:48:23.314Z,9.68
2022-10-10T21:50:57.001Z,9.13
2022-10-10T21:53:32.493Z,8.27
2022-10-10T21:56:07.288Z,9.15
2022-10-10T21:58:40.324Z,10.40
2022-10-10T22:01:35.401Z,8.68
2022-10-10T22:04:06.232Z,7.30
2022-10-10T22:06:36.158Z,9.55
2022-10-10T22:09:07.077Z,10.45
2022-10-10T22:11:38.089Z,9.82
2022-10-10T22:14:12.026Z,9.43
2022-10-10T22:16:39.266Z,9.20
2022-10-10T22:19:07.785Z,9.65
2022-10-10T22:21:43.333Z,8.93
2022-10-10T22:24:13.517Z,8.68
2022-10-10T22:26:42.654Z,9.20
2022-10-10T22:29:11.096Z,9.27
2022-10-10T22:31:39.462Z,9.75
2022-10-10T22:34:14.016Z,9.30
2022-10-10T22:36:43.505Z,9.35
2022-10-10T22:39:12.666Z,10.40
2022-10-10T22:41:43.319Z,9.10
2022-10-10T22:44:10.572Z,9.07
2022-10-10T22:46:40.115Z,8.60
2022-10-10T22:49:11.504Z,9.43
2022-10-10T22:51:43.110Z,9.27
2022-10-10T22:54:14.761Z,8.52
2022-10-10T22:56:42.349Z,9.23
2022-10-10T22:59:11.089Z,8.98
2022-10-10T23:01:39.387Z,9.45
2022-10-10T23:04:10.895Z,9.18
2022-10-10T23:06:39.476Z,8.80
2022-10-10T23:09:10.422Z,9.00
2022-10-10T23:11:40.474Z,9.18
2022-10-10T23:14:08.136Z,8.18
2022-10-10T23:16:37.460Z,9.70
2022-10-10T23:19:08.780Z,10.25
2022-10-10T23:21:35.861Z,9.55
2022-10-10T23:24:05.199Z,8.60
2022-10-10T23:26:39.497Z,9.93
2022-10-10T23:29:13.217Z,8.65
2022-10-10T23:31:46.655Z,9.20
2022-10-10T23:34:15.053Z,9.43
2022-10-10T23:36:44.298Z,10.70
2022-10-10T23:39:11.655Z,9.93
2022-10-10T23:41:39.957Z,9.93
2022-10-10T23:44:07.175Z,9.27
2022-10-10T23:46:33.959Z,9.70
2022-10-10T23:49:02.573Z,10.27
2022-10-10T23:51:30.579Z,9.85
2022-10-10T23:53:59.164Z,10.75
2022-10-10T23:56:29.275Z,9.82
2022-10-10T23:58:58.169Z,9.85
